JBU987 KIND-KORD
Flight info
| Callsign | JBU987 |
|---|---|
| Flight time | 0h 39m |
| Altitude | 23000 |
| Route | MEARZ7 MEARZ BRATN BONNT VEECK5 |
| Aircraft | A320/M-SDE3FGHIRWY/LB1 |
Departure
| Time | 2026-05-05 23:15 |
|---|---|
| Airport | Indianapolis International Airport (KIND) |
Arrival
| Time | 2026-05-05 23:54 |
|---|---|
| Airport | Chicago O'Hare International Airport (KORD) |
| Time | Latitude | Longitude | Altitude | Speed | Heading |
|---|---|---|---|---|---|
| 2026-05-05 22:57 | 39.70787 | -86.29140 | 788 ft | 0 kts | 316° |
| 2026-05-05 23:02 | 39.70781 | -86.29134 | 788 ft | 3 kts | 316° |
| 2026-05-05 23:02 | 39.70765 | -86.29113 | 780 ft | 4 kts | 336° |
| 2026-05-05 23:02 | 39.70741 | -86.29114 | 788 ft | 4 kts | 49° |
| 2026-05-05 23:03 | 39.70718 | -86.29146 | 788 ft | 6 kts | 48° |
| 2026-05-05 23:03 | 39.70709 | -86.29158 | 789 ft | 0 kts | 48° |
| 2026-05-05 23:04 | 39.70707 | -86.29162 | 789 ft | 8 kts | 48° |
| 2026-05-05 23:05 | 39.70679 | -86.29202 | 790 ft | 0 kts | 48° |
| 2026-05-05 23:05 | 39.70680 | -86.29202 | 790 ft | 0 kts | 48° |
| 2026-05-05 23:08 | 39.70683 | -86.29197 | 790 ft | 0 kts | 48° |
| 2026-05-05 23:09 | 39.70702 | -86.29170 | 789 ft | 12 kts | 45° |
| 2026-05-05 23:09 | 39.70763 | -86.29092 | 789 ft | 9 kts | 45° |
| 2026-05-05 23:10 | 39.70805 | -86.29040 | 790 ft | 7 kts | 36° |
| 2026-05-05 23:10 | 39.70846 | -86.29043 | 790 ft | 5 kts | 344° |
| 2026-05-05 23:10 | 39.70881 | -86.29059 | 790 ft | 7 kts | 333° |
| 2026-05-05 23:10 | 39.70886 | -86.29144 | 790 ft | 16 kts | 233° |
| 2026-05-05 23:11 | 39.70799 | -86.29258 | 789 ft | 18 kts | 224° |
| 2026-05-05 23:11 | 39.70730 | -86.29345 | 791 ft | 11 kts | 224° |
| 2026-05-05 23:11 | 39.70682 | -86.29405 | 792 ft | 9 kts | 222° |
| 2026-05-05 23:11 | 39.70601 | -86.29476 | 792 ft | 16 kts | 203° |
| 2026-05-05 23:12 | 39.70498 | -86.29545 | 795 ft | 17 kts | 217° |
| 2026-05-05 23:12 | 39.70398 | -86.29667 | 793 ft | 22 kts | 225° |
| 2026-05-05 23:12 | 39.70291 | -86.29806 | 793 ft | 21 kts | 225° |
| 2026-05-05 23:12 | 39.70181 | -86.29946 | 790 ft | 23 kts | 225° |
| 2026-05-05 23:13 | 39.70071 | -86.30088 | 791 ft | 22 kts | 225° |
| 2026-05-05 23:13 | 39.70009 | -86.30167 | 791 ft | 0 kts | 225° |
| 2026-05-05 23:13 | 39.69998 | -86.30186 | 791 ft | 10 kts | 240° |
| 2026-05-05 23:13 | 39.70027 | -86.30269 | 792 ft | 11 kts | 313° |
| 2026-05-05 23:14 | 39.70106 | -86.30322 | 790 ft | 17 kts | 14° |
| 2026-05-05 23:14 | 39.70349 | -86.30027 | 789 ft | 93 kts | 44° |
| 2026-05-05 23:14 | 39.71000 | -86.29204 | 817 ft | 162 kts | 40° |
| 2026-05-05 23:14 | 39.71898 | -86.28093 | 1258 ft | 198 kts | 41° |
| 2026-05-05 23:15 | 39.72801 | -86.26686 | 2346 ft | 216 kts | 57° |
| 2026-05-05 23:15 | 39.73461 | -86.24787 | 3162 ft | 244 kts | 65° |
| 2026-05-05 23:15 | 39.74153 | -86.22670 | 3754 ft | 264 kts | 66° |
| 2026-05-05 23:15 | 39.74932 | -86.20444 | 4554 ft | 276 kts | 65° |
| 2026-05-05 23:16 | 39.75944 | -86.18280 | 5414 ft | 286 kts | 47° |
| 2026-05-05 23:16 | 39.77567 | -86.16752 | 6224 ft | 294 kts | 20° |
| 2026-05-05 23:16 | 39.79577 | -86.16227 | 7026 ft | 298 kts | 0° |
| 2026-05-05 23:16 | 39.81661 | -86.16033 | 7904 ft | 303 kts | 359° |
| 2026-05-05 23:17 | 39.83783 | -86.15842 | 8779 ft | 307 kts | 359° |
| 2026-05-05 23:17 | 39.85932 | -86.15649 | 9681 ft | 311 kts | 359° |
| 2026-05-05 23:17 | 39.88118 | -86.15449 | 10357 ft | 322 kts | 358° |
| 2026-05-05 23:17 | 39.90440 | -86.15240 | 10626 ft | 346 kts | 359° |
| 2026-05-05 23:18 | 39.92899 | -86.15012 | 10819 ft | 370 kts | 359° |
| 2026-05-05 23:18 | 39.95535 | -86.14762 | 11141 ft | 387 kts | 359° |
| 2026-05-05 23:18 | 39.98245 | -86.14496 | 11799 ft | 393 kts | 0° |
| 2026-05-05 23:18 | 40.01019 | -86.14213 | 12525 ft | 397 kts | 0° |
| 2026-05-05 23:19 | 40.03755 | -86.13931 | 13214 ft | 402 kts | 0° |
| 2026-05-05 23:19 | 40.06554 | -86.13646 | 13876 ft | 407 kts | 0° |
| 2026-05-05 23:19 | 40.09395 | -86.13294 | 14483 ft | 413 kts | 5° |
| 2026-05-05 23:19 | 40.12206 | -86.12356 | 15098 ft | 421 kts | 16° |
| 2026-05-05 23:20 | 40.14890 | -86.10721 | 15714 ft | 430 kts | 27° |
| 2026-05-05 23:20 | 40.17329 | -86.08414 | 16320 ft | 438 kts | 39° |
| 2026-05-05 23:20 | 40.19549 | -86.05650 | 16931 ft | 443 kts | 43° |
| 2026-05-05 23:20 | 40.21775 | -86.02844 | 17554 ft | 447 kts | 42° |
| 2026-05-05 23:21 | 40.24028 | -86.00003 | 18143 ft | 452 kts | 42° |
| 2026-05-05 23:21 | 40.26305 | -85.97131 | 18680 ft | 457 kts | 42° |
| 2026-05-05 23:21 | 40.28606 | -85.94229 | 19247 ft | 461 kts | 41° |
| 2026-05-05 23:21 | 40.30922 | -85.91312 | 19834 ft | 464 kts | 41° |
| 2026-05-05 23:22 | 40.33255 | -85.88371 | 20390 ft | 467 kts | 41° |
| 2026-05-05 23:22 | 40.35602 | -85.85405 | 20924 ft | 470 kts | 41° |
| 2026-05-05 23:22 | 40.37959 | -85.82419 | 21418 ft | 473 kts | 40° |
| 2026-05-05 23:22 | 40.40333 | -85.79409 | 21940 ft | 476 kts | 40° |
| 2026-05-05 23:23 | 40.42793 | -85.76499 | 22367 ft | 476 kts | 33° |
| 2026-05-05 23:23 | 40.45556 | -85.74138 | 22773 ft | 472 kts | 22° |
| 2026-05-05 23:23 | 40.48540 | -85.72399 | 22884 ft | 469 kts | 12° |
| 2026-05-05 23:23 | 40.50620 | -85.71618 | 22902 ft | 471 kts | 6° |
| 2026-05-05 23:24 | 40.53865 | -85.71021 | 22898 ft | 472 kts | 356° |
| 2026-05-05 23:24 | 40.57137 | -85.71134 | 22897 ft | 467 kts | 347° |
| 2026-05-05 23:24 | 40.60294 | -85.71928 | 22899 ft | 459 kts | 338° |
| 2026-05-05 23:24 | 40.63367 | -85.73058 | 22900 ft | 459 kts | 337° |
| 2026-05-05 23:25 | 40.67483 | -85.74575 | 22904 ft | 459 kts | 338° |
| 2026-05-05 23:25 | 40.69516 | -85.75323 | 22905 ft | 459 kts | 338° |
| 2026-05-05 23:25 | 40.72594 | -85.76458 | 22906 ft | 459 kts | 337° |
| 2026-05-05 23:25 | 40.75668 | -85.77594 | 22910 ft | 459 kts | 337° |
| 2026-05-05 23:26 | 40.78719 | -85.78715 | 22900 ft | 446 kts | 338° |
| 2026-05-05 23:26 | 40.81651 | -85.79897 | 22911 ft | 440 kts | 331° |
| 2026-05-05 23:26 | 40.84334 | -85.81809 | 22916 ft | 437 kts | 318° |
| 2026-05-05 23:26 | 40.86601 | -85.84413 | 22905 ft | 428 kts | 307° |
| 2026-05-05 23:27 | 40.88390 | -85.87513 | 22903 ft | 421 kts | 296° |
| 2026-05-05 23:27 | 40.89688 | -85.90952 | 22899 ft | 416 kts | 289° |
| 2026-05-05 23:27 | 40.90807 | -85.94424 | 22897 ft | 417 kts | 289° |
| 2026-05-05 23:27 | 40.91952 | -85.97944 | 22895 ft | 417 kts | 289° |
| 2026-05-05 23:28 | 40.93102 | -86.01460 | 22892 ft | 417 kts | 289° |
| 2026-05-05 23:28 | 40.94255 | -86.04978 | 22890 ft | 417 kts | 289° |
| 2026-05-05 23:28 | 40.95403 | -86.08498 | 22889 ft | 417 kts | 289° |
| 2026-05-05 23:28 | 40.96545 | -86.12016 | 22886 ft | 417 kts | 289° |
| 2026-05-05 23:29 | 40.97685 | -86.15543 | 22883 ft | 416 kts | 289° |
| 2026-05-05 23:29 | 40.98824 | -86.19069 | 22894 ft | 416 kts | 289° |
| 2026-05-05 23:29 | 40.99960 | -86.22596 | 22888 ft | 416 kts | 289° |
| 2026-05-05 23:29 | 41.01094 | -86.26121 | 22890 ft | 416 kts | 289° |
| 2026-05-05 23:30 | 41.02229 | -86.29647 | 22886 ft | 416 kts | 289° |
| 2026-05-05 23:30 | 41.03358 | -86.33171 | 22884 ft | 416 kts | 289° |
| 2026-05-05 23:30 | 41.04479 | -86.36652 | 22892 ft | 400 kts | 289° |
| 2026-05-05 23:30 | 41.05579 | -86.40056 | 22901 ft | 407 kts | 289° |
| 2026-05-05 23:31 | 41.06696 | -86.43552 | 22898 ft | 414 kts | 289° |
| 2026-05-05 23:31 | 41.07819 | -86.47082 | 22926 ft | 416 kts | 289° |
| 2026-05-05 23:31 | 41.09087 | -86.50540 | 22879 ft | 420 kts | 295° |
| 2026-05-05 23:31 | 41.10597 | -86.53855 | 22884 ft | 420 kts | 297° |
| 2026-05-05 23:32 | 41.12447 | -86.56897 | 22897 ft | 431 kts | 310° |
| 2026-05-05 23:32 | 41.14956 | -86.59194 | 22882 ft | 449 kts | 327° |
| 2026-05-05 23:32 | 41.17942 | -86.60602 | 22888 ft | 458 kts | 335° |
| 2026-05-05 23:32 | 41.20994 | -86.61839 | 22883 ft | 459 kts | 335° |
| 2026-05-05 23:33 | 41.24034 | -86.63098 | 22877 ft | 455 kts | 332° |
| 2026-05-05 23:33 | 41.26785 | -86.65011 | 22875 ft | 440 kts | 317° |
| 2026-05-05 23:33 | 41.29039 | -86.67675 | 22878 ft | 430 kts | 307° |
| 2026-05-05 23:33 | 41.31117 | -86.70533 | 22896 ft | 430 kts | 307° |
| 2026-05-05 23:34 | 41.33201 | -86.73408 | 22888 ft | 431 kts | 307° |
| 2026-05-05 23:34 | 41.35252 | -86.76243 | 22879 ft | 431 kts | 307° |
| 2026-05-05 23:34 | 41.37333 | -86.79118 | 22876 ft | 431 kts | 307° |
| 2026-05-05 23:34 | 41.39401 | -86.81966 | 22874 ft | 418 kts | 307° |
| 2026-05-05 23:35 | 41.41387 | -86.84684 | 22332 ft | 405 kts | 307° |
| 2026-05-05 23:35 | 41.43362 | -86.87408 | 20877 ft | 409 kts | 307° |
| 2026-05-05 23:35 | 41.45334 | -86.90142 | 19103 ft | 410 kts | 308° |
| 2026-05-05 23:35 | 41.47304 | -86.92882 | 17924 ft | 402 kts | 308° |
| 2026-05-05 23:36 | 41.49189 | -86.95497 | 17321 ft | 385 kts | 308° |
| 2026-05-05 23:36 | 41.51054 | -86.98097 | 16496 ft | 388 kts | 308° |
| 2026-05-05 23:36 | 41.52907 | -87.00683 | 15705 ft | 382 kts | 308° |
| 2026-05-05 23:36 | 41.54732 | -87.03228 | 14905 ft | 380 kts | 308° |
| 2026-05-05 23:37 | 41.56551 | -87.05771 | 14357 ft | 374 kts | 309° |
| 2026-05-05 23:37 | 41.58308 | -87.08213 | 14235 ft | 355 kts | 309° |
| 2026-05-05 23:37 | 41.59979 | -87.10528 | 14113 ft | 337 kts | 309° |
| 2026-05-05 23:37 | 41.61566 | -87.12731 | 13994 ft | 321 kts | 308° |
| 2026-05-05 23:38 | 41.63077 | -87.14836 | 13876 ft | 307 kts | 308° |
| 2026-05-05 23:38 | 41.64523 | -87.16855 | 13759 ft | 294 kts | 308° |
| 2026-05-05 23:38 | 41.65911 | -87.18797 | 13617 ft | 283 kts | 308° |
| 2026-05-05 23:38 | 41.67081 | -87.20436 | 13386 ft | 278 kts | 308° |
| 2026-05-05 23:39 | 41.67662 | -87.21249 | 13223 ft | 277 kts | 308° |
| 2026-05-05 23:40 | 41.68989 | -87.23113 | 12843 ft | 276 kts | 308° |
| 2026-05-05 23:40 | 41.70309 | -87.24971 | 12466 ft | 275 kts | 308° |
| 2026-05-05 23:40 | 41.71624 | -87.26823 | 12081 ft | 274 kts | 308° |
| 2026-05-05 23:40 | 41.72935 | -87.28673 | 11711 ft | 273 kts | 308° |
| 2026-05-05 23:41 | 41.74112 | -87.30332 | 11375 ft | 273 kts | 308° |
| 2026-05-05 23:42 | 41.75336 | -87.32058 | 11043 ft | 273 kts | 307° |
| 2026-05-05 23:42 | 41.76629 | -87.33875 | 10701 ft | 273 kts | 307° |
| 2026-05-05 23:43 | 41.77906 | -87.35670 | 10366 ft | 272 kts | 307° |
| 2026-05-05 23:44 | 41.77913 | -87.35680 | 10369 ft | 272 kts | 307° |
| 2026-05-05 23:44 | 41.79219 | -87.37513 | 10108 ft | 270 kts | 307° |
| 2026-05-05 23:44 | 41.80523 | -87.39344 | 9905 ft | 273 kts | 307° |
| 2026-05-05 23:44 | 41.81845 | -87.41212 | 9458 ft | 275 kts | 307° |
| 2026-05-05 23:45 | 41.83142 | -87.43038 | 9321 ft | 265 kts | 308° |
| 2026-05-05 23:45 | 41.84391 | -87.44795 | 9186 ft | 256 kts | 308° |
| 2026-05-05 23:45 | 41.85597 | -87.46493 | 9051 ft | 247 kts | 308° |
| 2026-05-05 23:45 | 41.86762 | -87.48139 | 8918 ft | 239 kts | 308° |
| 2026-05-05 23:46 | 41.87884 | -87.49723 | 8788 ft | 230 kts | 308° |
| 2026-05-05 23:46 | 41.88968 | -87.51256 | 8654 ft | 222 kts | 308° |
| 2026-05-05 23:46 | 41.90014 | -87.52740 | 8488 ft | 216 kts | 308° |
| 2026-05-05 23:46 | 41.91065 | -87.54239 | 7922 ft | 227 kts | 309° |
| 2026-05-05 23:47 | 41.92171 | -87.55820 | 7256 ft | 235 kts | 310° |
| 2026-05-05 23:47 | 41.93304 | -87.57433 | 6627 ft | 239 kts | 312° |
| 2026-05-05 23:47 | 41.94438 | -87.59043 | 6140 ft | 236 kts | 313° |
| 2026-05-05 23:47 | 41.95560 | -87.60635 | 5593 ft | 234 kts | 313° |
| 2026-05-05 23:48 | 41.96674 | -87.62214 | 5066 ft | 232 kts | 313° |
| 2026-05-05 23:48 | 41.97762 | -87.63760 | 4557 ft | 229 kts | 313° |
| 2026-05-05 23:48 | 41.98854 | -87.65309 | 4031 ft | 227 kts | 313° |
| 2026-05-05 23:48 | 41.99822 | -87.66958 | 3527 ft | 223 kts | 296° |
| 2026-05-05 23:49 | 42.00233 | -87.68873 | 3427 ft | 204 kts | 276° |
| 2026-05-05 23:49 | 42.00254 | -87.70664 | 3429 ft | 178 kts | 272° |
| 2026-05-05 23:49 | 42.00257 | -87.72216 | 3263 ft | 156 kts | 273° |
| 2026-05-05 23:49 | 42.00261 | -87.73616 | 3093 ft | 145 kts | 273° |
| 2026-05-05 23:50 | 42.00264 | -87.74915 | 2902 ft | 134 kts | 273° |
| 2026-05-05 23:50 | 42.00267 | -87.76147 | 2721 ft | 131 kts | 272° |
| 2026-05-05 23:50 | 42.00267 | -87.76403 | 2684 ft | 131 kts | 272° |
| 2026-05-05 23:51 | 42.00268 | -87.76823 | 2623 ft | 130 kts | 272° |
| 2026-05-05 23:51 | 42.00270 | -87.78034 | 2450 ft | 128 kts | 273° |
| 2026-05-05 23:51 | 42.00272 | -87.79214 | 2280 ft | 127 kts | 273° |
| 2026-05-05 23:52 | 42.00274 | -87.80397 | 2107 ft | 127 kts | 272° |
| 2026-05-05 23:52 | 42.00276 | -87.81583 | 1928 ft | 128 kts | 272° |
| 2026-05-05 23:52 | 42.00277 | -87.82783 | 1757 ft | 128 kts | 272° |
| 2026-05-05 23:52 | 42.00278 | -87.83979 | 1585 ft | 128 kts | 274° |
| 2026-05-05 23:53 | 42.00279 | -87.85163 | 1405 ft | 126 kts | 272° |
| 2026-05-05 23:53 | 42.00281 | -87.86334 | 1227 ft | 126 kts | 272° |
| 2026-05-05 23:53 | 42.00281 | -87.87521 | 1068 ft | 127 kts | 271° |
| 2026-05-05 23:53 | 42.00282 | -87.88706 | 906 ft | 126 kts | 274° |
| 2026-05-05 23:54 | 42.00282 | -87.89876 | 733 ft | 123 kts | 273° |
| 2026-05-05 23:54 | 42.00287 | -87.90957 | 669 ft | 98 kts | 270° |
| 2026-05-05 23:54 | 42.00286 | -87.91491 | 667 ft | 32 kts | 268° |
| 2026-05-05 23:54 | 42.00281 | -87.91774 | 669 ft | 30 kts | 272° |
| 2026-05-05 23:55 | 42.00284 | -87.92063 | 679 ft | 31 kts | 269° |
| 2026-05-05 23:55 | 42.00257 | -87.92362 | 681 ft | 34 kts | 245° |
| 2026-05-05 23:55 | 42.00162 | -87.92584 | 681 ft | 1 kts | 237° |